Time;durP1;ratioP1;P1;durP2;ratioP2;P2;SDS_P1;SDS_P2;PMS_P1;PMS_P2;Temp;Humidity;BMP_temperature;BMP_pressure;BME280_temperature;BME280_humidity;BME280_pressure;Samples;Min_cycle;Max_cycle;Signal;HPM_P1;HPM_P2
2024/01/05 00:00:21;;;;;;;11.23;3.85;;;;;;;3.34;100.00;100196.09;6258280;28;20092;-69
2024/01/05 00:03:22;;;;;;;12.13;3.80;;;;;;;3.36;100.00;100193.44;6276947;28;20060;-68
2024/01/05 00:06:24;;;;;;;6.22;3.63;;;;;;;3.30;100.00;100182.38;6276180;28;20045;-68
2024/01/05 00:09:27;;;;;;;7.78;3.20;;;;;;;3.31;100.00;100185.81;6256024;28;20049;-69
2024/01/05 00:12:28;;;;;;;9.43;3.40;;;;;;;3.33;100.00;100188.38;6266508;28;20079;-70
2024/01/05 00:15:29;;;;;;;5.63;3.20;;;;;;;3.40;100.00;100182.06;6276534;28;20480;-69
2024/01/05 00:18:30;;;;;;;6.88;2.90;;;;;;;3.40;100.00;100190.69;6271272;28;20053;-70
2024/01/05 00:21:32;;;;;;;7.57;3.75;;;;;;;3.28;100.00;100180.72;6251932;28;20059;-68
2024/01/05 00:24:36;;;;;;;5.82;3.00;;;;;;;3.29;100.00;100178.06;6275314;28;20441;-70
2024/01/05 00:27:37;;;;;;;5.03;3.15;;;;;;;3.38;100.00;100186.47;6275966;28;20575;-68
2024/01/05 00:30:39;;;;;;;8.35;3.75;;;;;;;3.34;100.00;100183.13;6276490;28;20044;-69
2024/01/05 00:33:41;;;;;;;13.13;3.67;;;;;;;3.41;100.00;100187.22;6276124;28;20048;-69
2024/01/05 00:36:42;;;;;;;6.45;2.75;;;;;;;3.54;100.00;100188.53;6275835;28;20053;-69
2024/01/05 00:39:46;;;;;;;8.15;3.47;;;;;;;3.53;100.00;100172.97;6260089;28;20056;-69
2024/01/05 00:42:47;;;;;;;12.25;3.50;;;;;;;3.46;100.00;100171.50;6276398;28;20053;-69
2024/01/05 00:45:48;;;;;;;7.75;3.10;;;;;;;3.45;100.00;100162.84;6275140;28;20049;-69
2024/01/05 00:48:50;;;;;;;6.25;3.53;;;;;;;3.45;100.00;100157.66;6268693;28;20353;-69
2024/01/05 00:51:52;;;;;;;7.35;3.45;;;;;;;3.41;100.00;100166.44;6267478;28;20469;-69
2024/01/05 00:54:54;;;;;;;8.35;3.53;;;;;;;3.38;100.00;100155.31;6275707;28;20053;-69
2024/01/05 00:57:56;;;;;;;7.68;3.35;;;;;;;3.45;100.00;100152.47;6275837;28;20049;-69
2024/01/05 01:00:57;;;;;;;7.28;3.38;;;;;;;3.40;100.00;100149.16;6275867;28;20060;-69
2024/01/05 01:03:59;;;;;;;7.28;3.50;;;;;;;3.37;100.00;100148.41;6268689;28;20052;-69
2024/01/05 01:07:00;;;;;;;7.20;3.65;;;;;;;3.37;100.00;100138.88;6276300;28;20052;-69
2024/01/05 01:10:03;;;;;;;7.20;3.70;;;;;;;3.47;100.00;100136.81;6256880;28;20049;-69
2024/01/05 01:13:04;;;;;;;6.55;3.50;;;;;;;3.38;100.00;100132.78;6269245;28;20049;-69
2024/01/05 01:16:06;;;;;;;9.88;3.03;;;;;;;3.48;100.00;100125.53;6255698;28;20041;-69
2024/01/05 01:19:07;;;;;;;9.35;4.10;;;;;;;3.51;100.00;100128.03;6255396;28;20052;-69
2024/01/05 01:22:08;;;;;;;10.75;4.28;;;;;;;3.40;100.00;100117.13;6270510;28;20131;-69
2024/01/05 01:25:11;;;;;;;8.15;4.10;;;;;;;3.23;100.00;100126.34;6274771;28;20048;-69
2024/01/05 01:28:13;;;;;;;10.70;4.43;;;;;;;3.26;100.00;100108.06;6275246;28;20445;-69
2024/01/05 01:31:14;;;;;;;8.23;3.47;;;;;;;3.35;100.00;100117.28;6274481;28;20045;-68
2024/01/05 01:34:15;;;;;;;10.13;3.40;;;;;;;3.39;100.00;100118.03;6265301;28;20426;-69
2024/01/05 01:37:17;;;;;;;9.13;3.90;;;;;;;3.44;100.00;100116.13;6254082;28;20087;-68
2024/01/05 01:40:19;;;;;;;9.60;4.07;;;;;;;3.32;100.00;100112.22;6275044;28;20053;-69
2024/01/05 01:43:24;;;;;;;9.00;4.15;;;;;;;3.35;100.00;100108.66;6274937;28;20049;-68
2024/01/05 01:46:25;;;;;;;7.38;4.25;;;;;;;3.33;100.00;100100.94;6274372;28;20182;-68
2024/01/05 01:49:28;;;;;;;11.07;4.18;;;;;;;3.09;100.00;100102.59;6274758;28;20049;-68
2024/01/05 01:52:29;;;;;;;10.43;3.72;;;;;;;3.07;100.00;100098.34;6274595;28;20101;-67
2024/01/05 01:55:32;;;;;;;9.40;4.10;;;;;;;3.19;100.00;100090.16;6274502;28;20361;-68
2024/01/05 01:58:33;;;;;;;10.27;4.20;;;;;;;3.30;100.00;100090.63;6259312;28;20053;-68
2024/01/05 02:01:35;;;;;;;8.98;3.83;;;;;;;3.40;100.00;100091.16;6265388;28;20072;-69
2024/01/05 02:04:38;;;;;;;9.65;5.13;;;;;;;3.29;100.00;100083.75;6274653;28;20175;-67
2024/01/05 02:07:40;;;;;;;10.30;4.03;;;;;;;3.22;100.00;100074.47;6272784;28;20133;-67
2024/01/05 02:10:42;;;;;;;8.73;4.22;;;;;;;3.23;100.00;100078.78;6250016;28;20045;-69
2024/01/05 02:13:44;;;;;;;13.77;4.30;;;;;;;3.18;100.00;100068.53;6274301;28;20056;-67
2024/01/05 02:16:45;;;;;;;11.10;4.75;;;;;;;3.05;100.00;100067.25;6274345;28;20076;-68
2024/01/05 02:19:46;;;;;;;9.75;4.60;;;;;;;3.06;100.00;100063.75;6274460;28;20052;-68
2024/01/05 02:22:54;;;;;;;14.00;4.78;;;;;;;3.11;100.00;100059.25;6274236;28;20350;-68
2024/01/05 02:25:57;;;;;;;9.73;4.88;;;;;;;2.93;100.00;100046.91;6273989;28;20057;-70
2024/01/05 02:28:58;;;;;;;10.80;4.82;;;;;;;3.01;100.00;100039.72;6274552;28;20072;-68
2024/01/05 02:32:00;;;;;;;12.00;3.97;;;;;;;3.06;100.00;100035.22;6274142;28;20449;-67
2024/01/05 02:35:01;;;;;;;21.02;4.72;;;;;;;3.03;100.00;100037.91;6274115;28;20052;-69
2024/01/05 02:38:02;;;;;;;6.78;3.60;;;;;;;3.04;100.00;100024.88;6273960;28;20045;-69
2024/01/05 02:41:07;;;;;;;11.23;3.85;;;;;;;3.04;100.00;100027.47;6274126;28;20361;-69
2024/01/05 02:44:08;;;;;;;13.25;4.18;;;;;;;3.04;100.00;100021.41;6278771;28;20045;-67
2024/01/05 02:47:10;;;;;;;13.43;4.82;;;;;;;3.03;100.00;100019.72;6278069;28;20040;-67
2024/01/05 02:50:11;;;;;;;17.10;4.68;;;;;;;2.95;100.00;100014.81;6278716;28;20049;-69
2024/01/05 02:53:12;;;;;;;12.07;5.20;;;;;;;3.01;100.00;100011.16;6278479;28;20049;-69
2024/01/05 02:56:21;;;;;;;9.88;4.55;;;;;;;2.90;100.00;100005.47;6278388;28;20048;-69
2024/01/05 02:59:22;;;;;;;9.03;4.60;;;;;;;2.96;100.00;99998.34;6278589;28;20063;-69
2024/01/05 03:02:23;;;;;;;13.82;4.55;;;;;;;2.93;100.00;100000.19;6278452;28;20457;-69
2024/01/05 03:05:25;;;;;;;11.35;4.25;;;;;;;2.96;100.00;99997.50;6277906;28;20056;-67
2024/01/05 03:08:26;;;;;;;15.00;5.72;;;;;;;3.02;100.00;99995.53;6264453;28;20052;-69
2024/01/05 03:11:29;;;;;;;9.70;4.15;;;;;;;3.04;100.00;99987.69;6253467;28;20053;-68
2024/01/05 03:14:30;;;;;;;12.38;4.97;;;;;;;2.97;100.00;100000.03;6259504;28;20053;-68
2024/01/05 03:17:31;;;;;;;10.88;4.50;;;;;;;2.92;100.00;100001.09;6266421;28;20041;-68
2024/01/05 03:20:33;;;;;;;11.55;4.47;;;;;;;2.90;100.00;99990.75;6259671;28;20052;-67
2024/01/05 03:23:34;;;;;;;12.93;5.38;;;;;;;2.91;100.00;99974.28;6269733;28;20080;-67
2024/01/05 03:26:37;;;;;;;9.68;4.35;;;;;;;2.93;100.00;99971.63;6277478;28;20060;-68
2024/01/05 03:29:38;;;;;;;9.77;3.85;;;;;;;2.90;100.00;99967.38;6278244;28;20056;-67
2024/01/05 03:32:39;;;;;;;10.10;4.65;;;;;;;2.88;100.00;99964.00;6262740;28;20057;-69
2024/01/05 03:35:41;;;;;;;10.05;4.72;;;;;;;2.87;100.00;99953.69;6257811;28;20357;-68
2024/01/05 03:38:42;;;;;;;9.80;4.70;;;;;;;2.84;100.00;99949.44;6270106;28;20251;-68
2024/01/05 03:41:45;;;;;;;19.83;6.47;;;;;;;2.87;100.00;99954.53;6277722;28;20053;-68
2024/01/05 03:44:46;;;;;;;13.75;5.50;;;;;;;2.86;100.00;99960.63;6270705;28;20049;-70
2024/01/05 03:47:48;;;;;;;8.13;3.83;;;;;;;2.84;100.00;99951.19;6269387;28;20049;-68
2024/01/05 03:50:49;;;;;;;10.95;4.82;;;;;;;2.82;100.00;99937.41;6276571;28;20460;-70
2024/01/05 03:53:51;;;;;;;12.82;4.63;;;;;;;2.84;100.00;99941.66;6276511;28;20049;-68
2024/01/05 03:56:53;;;;;;;9.48;4.43;;;;;;;2.80;100.00;99933.13;6259300;28;20053;-69
2024/01/05 03:59:55;;;;;;;10.45;4.82;;;;;;;2.78;100.00;99928.91;6262013;28;20056;-68
2024/01/05 04:02:56;;;;;;;13.98;4.53;;;;;;;2.83;100.00;99918.38;6276904;28;20045;-69
2024/01/05 04:05:58;;;;;;;11.98;4.63;;;;;;;2.79;100.00;99908.09;6255587;28;20365;-68
2024/01/05 04:08:59;;;;;;;16.42;4.47;;;;;;;2.75;100.00;99906.50;6270294;28;20045;-68
2024/01/05 04:12:01;;;;;;;15.50;4.50;;;;;;;2.71;100.00;99910.09;6276592;28;20389;-68
2024/01/05 04:15:03;;;;;;;6.65;3.33;;;;;;;2.75;100.00;99909.09;6274733;28;20049;-68
2024/01/05 04:18:05;;;;;;;16.20;5.05;;;;;;;2.85;100.00;99894.06;6251525;28;20049;-68
2024/01/05 04:21:07;;;;;;;11.80;5.22;;;;;;;2.68;100.00;99889.47;6271298;28;20059;-68
2024/01/05 04:24:09;;;;;;;11.63;5.78;;;;;;;2.73;100.00;99879.78;6276375;28;20049;-68
2024/01/05 04:27:12;;;;;;;10.02;4.15;;;;;;;2.72;100.00;99875.47;6276173;28;20041;-70
2024/01/05 04:30:13;;;;;;;10.80;4.80;;;;;;;2.74;100.00;99878.88;6276198;28;20071;-69
2024/01/05 04:33:15;;;;;;;11.88;4.78;;;;;;;2.71;100.00;99878.13;6276354;28;20479;-68
2024/01/05 04:36:16;;;;;;;14.15;4.53;;;;;;;2.66;100.00;99867.06;6275581;28;20321;-69
2024/01/05 04:39:17;;;;;;;12.00;4.88;;;;;;;2.63;100.00;99862.81;6268611;28;20072;-68
2024/01/05 04:42:20;;;;;;;7.85;3.92;;;;;;;2.68;100.00;99849.69;6258774;28;20049;-68
2024/01/05 04:45:21;;;;;;;9.48;4.03;;;;;;;2.68;100.00;99855.75;6258100;28;20127;-68
2024/01/05 04:48:23;;;;;;;11.68;4.75;;;;;;;2.73;100.00;99845.22;6258391;28;20049;-68
2024/01/05 04:51:24;;;;;;;9.07;4.10;;;;;;;2.75;100.00;99839.06;6258521;28;20052;-70
2024/01/05 04:54:25;;;;;;;13.98;4.20;;;;;;;2.61;100.00;99832.69;6258493;28;20055;-69
2024/01/05 04:57:28;;;;;;;11.30;4.88;;;;;;;2.67;100.00;99837.63;6257729;28;20056;-68
2024/01/05 05:00:29;;;;;;;9.52;4.18;;;;;;;2.76;100.00;99838.16;6258500;28;20041;-68
2024/01/05 05:03:31;;;;;;;12.88;4.63;;;;;;;2.82;100.00;99831.03;6257642;28;20041;-68
2024/01/05 05:06:32;;;;;;;10.77;4.05;;;;;;;2.78;100.00;99830.34;6273099;28;20059;-70
2024/01/05 05:09:34;;;;;;;7.75;3.83;;;;;;;2.83;100.00;99824.97;6254228;28;20049;-68
2024/01/05 05:12:36;;;;;;;8.75;3.75;;;;;;;2.82;100.00;99826.72;6250518;28;20045;-68
2024/01/05 05:15:38;;;;;;;11.85;4.82;;;;;;;2.80;100.00;99833.69;6250846;28;20061;-68
2024/01/05 05:18:39;;;;;;;12.55;4.78;;;;;;;2.81;100.00;99827.59;6250880;28;20048;-68
2024/01/05 05:21:41;;;;;;;10.73;5.10;;;;;;;2.84;100.00;99824.91;6251017;28;20349;-70
2024/01/05 05:24:42;;;;;;;11.27;4.47;;;;;;;2.74;100.00;99821.81;6250252;28;20045;-68
2024/01/05 05:27:45;;;;;;;14.25;5.05;;;;;;;2.76;100.00;99829.53;6250760;28;20056;-68
2024/01/05 05:30:46;;;;;;;11.35;4.53;;;;;;;2.74;100.00;99826.16;6250810;28;20045;-69
2024/01/05 05:33:47;;;;;;;18.23;5.38;;;;;;;2.76;100.00;99832.97;6250630;28;20046;-69
2024/01/05 05:36:49;;;;;;;11.00;4.72;;;;;;;2.80;100.00;99824.16;6249280;28;20049;-69
2024/01/05 05:39:50;;;;;;;10.70;4.50;;;;;;;2.83;100.00;99817.19;6250825;28;20044;-69
2024/01/05 05:42:53;;;;;;;11.80;5.22;;;;;;;2.81;100.00;99819.81;6248973;28;20449;-69
2024/01/05 05:45:55;;;;;;;12.63;5.15;;;;;;;2.89;100.00;99833.38;6253058;28;20052;-69
2024/01/05 05:48:56;;;;;;;12.32;5.03;;;;;;;2.93;100.00;99840.13;6253052;28;20369;-69
2024/01/05 05:51:57;;;;;;;14.13;5.13;;;;;;;2.93;100.00;99836.69;6253023;28;20056;-68
2024/01/05 05:54:59;;;;;;;14.57;5.30;;;;;;;2.92;100.00;99840.22;6250269;28;20561;-69
2024/01/05 05:58:01;;;;;;;15.35;5.28;;;;;;;2.81;100.00;99837.97;6253242;28;20049;-70
2024/01/05 06:01:05;;;;;;;9.88;4.88;;;;;;;2.90;100.00;99835.06;6252074;28;20050;-69
2024/01/05 06:04:07;;;;;;;13.07;5.95;;;;;;;2.92;100.00;99835.84;6250320;28;20489;-68
2024/01/05 06:07:09;;;;;;;9.55;4.07;;;;;;;2.95;100.00;99829.69;6252425;28;20653;-68
2024/01/05 06:10:10;;;;;;;11.02;5.63;;;;;;;2.89;100.00;99825.59;6252912;28;20048;-69
2024/01/05 06:13:13;;;;;;;14.55;5.68;;;;;;;2.93;100.00;99819.38;6252988;28;20041;-68
2024/01/05 06:16:15;;;;;;;14.23;5.70;;;;;;;2.93;100.00;99818.53;6252649;28;20123;-68
2024/01/05 06:19:16;;;;;;;13.18;5.13;;;;;;;2.94;100.00;99818.47;6257667;28;20037;-69
2024/01/05 06:22:17;;;;;;;11.98;5.50;;;;;;;3.00;100.00;99822.59;6253429;28;20045;-69
2024/01/05 06:25:19;;;;;;;8.30;4.25;;;;;;;2.99;100.00;99813.94;6250208;28;20354;-70
2024/01/05 06:28:22;;;;;;;9.45;4.95;;;;;;;3.03;100.00;99809.50;6253607;28;20457;-70
2024/01/05 06:31:24;;;;;;;12.10;5.28;;;;;;;3.02;100.00;99811.25;6254812;28;20394;-69
2024/01/05 06:34:25;;;;;;;11.07;5.05;;;;;;;3.12;100.00;99809.16;6254724;28;20045;-69
2024/01/05 06:37:29;;;;;;;11.82;5.50;;;;;;;3.09;100.00;99798.03;6256428;28;20461;-68
2024/01/05 06:40:30;;;;;;;12.68;5.70;;;;;;;3.00;100.00;99796.66;6253640;28;20349;-69
2024/01/05 06:43:32;;;;;;;10.68;4.97;;;;;;;3.00;100.00;99783.69;6256818;28;20045;-68
2024/01/05 06:46:34;;;;;;;12.15;5.07;;;;;;;3.04;100.00;99778.31;6256643;28;20049;-70
2024/01/05 06:49:35;;;;;;;9.68;4.32;;;;;;;3.04;100.00;99780.91;6256529;28;20433;-70
2024/01/05 06:52:36;;;;;;;10.65;4.72;;;;;;;2.95;100.00;99790.75;6256422;28;20053;-70
2024/01/05 06:55:38;;;;;;;9.82;4.72;;;;;;;3.00;100.00;99799.25;6255310;28;20049;-69
2024/01/05 06:58:40;;;;;;;11.93;4.40;;;;;;;3.00;100.00;99794.91;6255684;28;20395;-68
2024/01/05 07:01:42;;;;;;;10.90;4.97;;;;;;;3.01;100.00;99785.38;6254933;28;20041;-69
2024/01/05 07:04:43;;;;;;;9.77;5.10;;;;;;;3.04;100.00;99790.41;6253137;28;20052;-68
2024/01/05 07:07:44;;;;;;;14.30;4.88;;;;;;;3.05;100.00;99781.75;6254661;28;20056;-69
2024/01/05 07:10:46;;;;;;;10.30;4.32;;;;;;;3.05;100.00;99773.97;6252749;28;20480;-69
2024/01/05 07:13:48;;;;;;;11.50;4.47;;;;;;;3.07;100.00;99774.75;6252886;28;20045;-68
2024/01/05 07:16:50;;;;;;;11.50;5.25;;;;;;;3.05;100.00;99779.16;6254670;28;20044;-69
2024/01/05 07:19:51;;;;;;;13.65;5.28;;;;;;;3.15;100.00;99777.91;6252025;28;20357;-68
2024/01/05 07:22:52;;;;;;;11.30;4.88;;;;;;;3.20;100.00;99778.56;6254310;28;20041;-69
2024/01/05 07:25:54;;;;;;;10.52;4.57;;;;;;;3.23;100.00;99780.22;6254473;28;20350;-68
2024/01/05 07:28:56;;;;;;;12.38;4.30;;;;;;;3.17;100.00;99778.66;6253355;28;20053;-69
2024/01/05 07:31:58;;;;;;;10.77;4.57;;;;;;;3.20;100.00;99772.53;6252268;28;20072;-69
2024/01/05 07:34:59;;;;;;;10.60;5.13;;;;;;;3.24;100.00;99774.94;6254204;28;20789;-69
2024/01/05 07:38:01;;;;;;;10.35;4.85;;;;;;;3.28;100.00;99773.06;6258053;28;20041;-69
2024/01/05 07:41:02;;;;;;;11.73;4.57;;;;;;;3.34;100.00;99764.19;6253434;28;20049;-69
2024/01/05 07:44:06;;;;;;;10.20;5.00;;;;;;;3.24;100.00;99766.31;6251056;28;20048;-69
2024/01/05 07:47:09;;;;;;;9.80;4.90;;;;;;;3.29;100.00;99769.56;6254721;28;20057;-69
2024/01/05 07:50:10;;;;;;;10.68;4.95;;;;;;;3.29;100.00;99772.16;6256634;28;20144;-70
2024/01/05 07:53:12;;;;;;;11.38;4.95;;;;;;;3.25;100.00;99768.84;6256598;28;20063;-69
2024/01/05 07:56:14;;;;;;;11.50;4.95;;;;;;;3.33;100.00;99754.72;6256421;28;20045;-68
2024/01/05 07:59:16;;;;;;;9.77;4.45;;;;;;;3.31;100.00;99762.56;6256445;28;20076;-69
2024/01/05 08:02:18;;;;;;;10.88;4.55;;;;;;;3.40;100.00;99759.59;6256212;28;20056;-69
2024/01/05 08:05:19;;;;;;;9.18;4.75;;;;;;;3.36;100.00;99765.84;6256143;28;20049;-71
2024/01/05 08:08:21;;;;;;;10.77;4.45;;;;;;;3.27;100.00;99767.03;6255906;28;20302;-70
2024/01/05 08:11:22;;;;;;;10.35;5.50;;;;;;;3.25;100.00;99768.00;6256198;28;20056;-69
2024/01/05 08:14:25;;;;;;;11.45;5.20;;;;;;;3.24;100.00;99776.69;6253414;28;20042;-69
2024/01/05 08:17:26;;;;;;;11.30;4.95;;;;;;;3.30;100.00;99781.63;6253360;28;20061;-69
2024/01/05 08:20:27;;;;;;;12.15;4.55;;;;;;;3.35;100.00;99778.88;6253003;28;20048;-69
2024/01/05 08:23:29;;;;;;;10.73;5.07;;;;;;;3.38;100.00;99773.56;6255516;28;20056;-69
2024/01/05 08:26:30;;;;;;;11.93;5.00;;;;;;;3.34;100.00;99774.59;6255573;28;20052;-69
2024/01/05 08:29:34;;;;;;;14.93;5.30;;;;;;;3.39;100.00;99775.25;6255378;28;20361;-69
2024/01/05 08:32:36;;;;;;;15.35;6.50;;;;;;;3.46;100.00;99771.50;6255693;28;20054;-69
2024/01/05 08:35:37;;;;;;;12.63;5.13;;;;;;;3.47;100.00;99766.25;6255115;28;20049;-69
2024/01/05 08:38:38;;;;;;;17.00;6.50;;;;;;;3.51;100.00;99760.03;6255378;28;20052;-69
2024/01/05 08:41:43;;;;;;;14.23;4.97;;;;;;;3.44;100.00;99768.94;6255044;28;20448;-69
2024/01/05 08:44:45;;;;;;;15.82;6.53;;;;;;;3.42;100.00;99764.75;6253676;28;20521;-69
2024/01/05 08:47:47;;;;;;;11.85;5.18;;;;;;;3.36;100.00;99763.25;6254675;28;20053;-69
2024/01/05 08:50:48;;;;;;;10.15;5.03;;;;;;;3.34;100.00;99762.44;6253969;28;20037;-69
2024/01/05 08:53:49;;;;;;;16.17;5.82;;;;;;;3.45;100.00;99764.59;6253804;28;20072;-69
2024/01/05 08:56:51;;;;;;;11.88;5.38;;;;;;;3.46;100.00;99774.09;6265424;28;20353;-69
2024/01/05 08:59:53;;;;;;;9.85;4.78;;;;;;;3.37;100.00;99767.53;6274747;28;20048;-69
2024/01/05 09:02:55;;;;;;;9.77;4.97;;;;;;;3.43;100.00;99763.84;6274428;28;20452;-69
2024/01/05 09:05:56;;;;;;;12.90;5.20;;;;;;;3.48;100.00;99769.69;6274133;28;20053;-69
2024/01/05 09:08:58;;;;;;;12.13;5.65;;;;;;;3.49;100.00;99772.22;6274294;28;20326;-69
2024/01/05 09:11:59;;;;;;;10.30;4.55;;;;;;;3.38;100.00;99764.00;6274527;28;20049;-69
2024/01/05 09:15:02;;;;;;;11.25;5.00;;;;;;;3.45;100.00;99777.59;6274081;28;20135;-70
2024/01/05 09:18:05;;;;;;;11.13;4.93;;;;;;;3.46;100.00;99777.53;6274321;28;20564;-71
2024/01/05 09:21:07;;;;;;;11.32;4.75;;;;;;;3.55;100.00;99782.38;6274400;28;20064;-68
2024/01/05 09:24:08;;;;;;;11.00;5.20;;;;;;;3.53;100.00;99780.72;6274034;28;20128;-68
2024/01/05 09:27:10;;;;;;;10.43;4.78;;;;;;;3.53;100.00;99783.31;6273653;28;20326;-68
2024/01/05 09:30:13;;;;;;;12.60;5.80;;;;;;;3.47;100.00;99789.63;6274103;28;20060;-68
2024/01/05 09:33:14;;;;;;;9.65;5.03;;;;;;;3.51;100.00;99788.59;6270266;28;20044;-68
2024/01/05 09:36:15;;;;;;;8.90;4.88;;;;;;;3.56;100.00;99783.22;6273357;28;20045;-69
2024/01/05 09:39:17;;;;;;;10.32;3.85;;;;;;;3.58;100.00;99770.16;6274242;28;20044;-68
2024/01/05 09:42:19;;;;;;;8.82;3.65;;;;;;;3.65;100.00;99769.84;6254846;28;20045;-69
2024/01/05 09:45:22;;;;;;;9.07;4.60;;;;;;;3.69;100.00;99766.22;6252666;28;20048;-69
2024/01/05 09:48:24;;;;;;;10.13;4.80;;;;;;;3.65;100.00;99756.03;6217898;28;996453;-69
2024/01/05 09:51:29;;;;;;;9.15;4.63;;;;;;;3.72;100.00;99760.88;6270012;28;20057;-69
2024/01/05 09:54:30;;;;;;;9.05;3.70;;;;;;;3.66;100.00;99755.94;6263320;28;20045;-69
2024/01/05 09:57:32;;;;;;;7.97;3.90;;;;;;;3.68;100.00;99745.50;6254366;28;20049;-68
2024/01/05 10:00:35;;;;;;;8.85;4.35;;;;;;;3.72;100.00;99737.50;6247035;28;20053;-68
2024/01/05 10:03:36;;;;;;;7.07;3.20;;;;;;;3.66;100.00;99736.94;6254621;28;20349;-68
2024/01/05 10:06:39;;;;;;;5.95;3.50;;;;;;;3.62;100.00;99733.59;6255560;28;20042;-70
2024/01/05 10:09:50;;;;;;;7.45;3.83;;;;;;;3.76;100.00;99735.63;6253255;28;20045;-69
2024/01/05 10:12:51;;;;;;;8.13;3.88;;;;;;;3.72;100.00;99739.25;6253135;28;20128;-69
2024/01/05 10:15:55;;;;;;;11.82;4.18;;;;;;;3.64;100.00;99739.59;6252646;28;20362;-68
2024/01/05 10:19:10;;;;;;;6.25;3.60;;;;;;;3.71;100.00;99745.38;6265679;28;20056;-68
2024/01/05 10:22:13;;;;;;;7.28;3.30;;;;;;;3.75;100.00;99736.53;6274386;28;20136;-70
2024/01/05 10:25:16;;;;;;;6.03;3.53;;;;;;;3.79;100.00;99723.34;6274181;28;20056;-70
2024/01/05 10:28:23;;;;;;;8.07;3.58;;;;;;;3.83;100.00;99723.25;6274385;28;20053;-73
2024/01/05 10:31:26;;;;;;;7.68;3.42;;;;;;;3.80;100.00;99713.81;6274643;28;20048;-67
2024/01/05 10:34:34;;;;;;;5.57;3.22;;;;;;;3.85;100.00;99714.44;6274338;28;20049;-68
2024/01/05 10:37:36;;;;;;;7.40;3.67;;;;;;;4.03;100.00;99713.66;6251413;28;20127;-69
2024/01/05 10:40:37;;;;;;;7.30;3.50;;;;;;;4.07;100.00;99709.19;6255394;28;20056;-68
2024/01/05 10:43:41;;;;;;;10.90;3.90;;;;;;;4.06;100.00;99703.16;6274375;28;20045;-68
2024/01/05 10:46:45;;;;;;;7.82;3.75;;;;;;;4.18;100.00;99698.31;6273937;28;20070;-69
2024/01/05 10:49:49;;;;;;;8.48;3.63;;;;;;;4.18;100.00;99700.91;6273743;28;20049;-69
2024/01/05 10:52:54;;;;;;;6.85;3.42;;;;;;;4.23;100.00;99692.00;6274135;28;20053;-70
2024/01/05 10:55:59;;;;;;;7.22;3.80;;;;;;;4.28;100.00;99691.81;6266429;28;20430;-69
2024/01/05 10:59:00;;;;;;;6.40;3.97;;;;;;;4.35;100.00;99690.59;6251258;28;20354;-69
2024/01/05 11:02:09;;;;;;;8.73;4.20;;;;;;;4.32;100.00;99681.19;6245289;28;20387;-70
2024/01/05 11:05:11;;;;;;;;;;;;;;;4.41;100.00;99676.50;6243085;28;20057;-69
2024/01/05 11:08:26;;;;;;;6.40;3.05;;;;;;;4.47;100.00;99681.41;6242067;28;19921;-70
2024/01/05 11:11:36;;;;;;;6.10;3.03;;;;;;;4.25;100.00;99684.13;6243666;28;20045;-68
2024/01/05 11:14:55;;;;;;;7.20;3.75;;;;;;;4.04;100.00;99686.78;6243910;28;20064;-68
2024/01/05 11:18:19;;;;;;;5.97;3.50;;;;;;;3.99;100.00;99693.06;6259658;28;20048;-68
2024/01/05 11:21:25;;;;;;;7.68;4.05;;;;;;;4.14;100.00;99692.41;6275414;28;20355;-68
2024/01/05 11:24:28;;;;;;;10.02;4.45;;;;;;;4.17;100.00;99689.66;6275445;28;20605;-68
2024/01/05 11:27:31;;;;;;;6.40;3.60;;;;;;;4.06;100.00;99692.75;6275516;28;20053;-68
2024/01/05 11:30:40;;;;;;;9.15;4.70;;;;;;;4.16;100.00;99690.59;6276766;28;20053;-68
2024/01/05 11:33:47;;;;;;;7.43;3.20;;;;;;;3.99;100.00;99693.91;6277902;28;20128;-68
2024/01/05 11:36:55;;;;;;;5.55;3.05;;;;;;;4.12;100.00;99689.03;6277452;28;20052;-68
2024/01/05 11:39:59;;;;;;;8.07;3.83;;;;;;;4.21;100.00;99679.97;6277931;28;20095;-68
2024/01/05 11:43:35;;;;;;;13.50;3.85;;;;;;;4.13;100.00;99680.31;6277436;28;20053;-68
2024/01/05 11:46:52;;;;;;;6.05;3.33;;;;;;;4.20;100.00;99666.13;6277276;28;20052;-68
2024/01/05 11:49:53;;;;;;;6.32;3.63;;;;;;;4.27;100.00;99666.69;6277110;28;20136;-68
2024/01/05 11:53:12;;;;;;;6.05;3.40;;;;;;;4.29;100.00;99662.28;6243950;28;20462;-68
2024/01/05 11:56:17;;;;;;;9.50;3.65;;;;;;;4.31;100.00;99663.91;6234824;28;20149;-68
2024/01/05 11:59:20;;;;;;;6.00;3.38;;;;;;;4.24;100.00;99659.06;6249548;28;20053;-68
2024/01/05 12:02:21;;;;;;;6.43;3.50;;;;;;;4.30;100.00;99658.75;6251457;28;20053;-68
2024/01/05 12:05:23;;;;;;;11.38;3.90;;;;;;;4.35;100.00;99661.16;6248836;28;20048;-68
2024/01/05 12:08:24;;;;;;;10.13;3.55;;;;;;;4.24;100.00;99657.28;6241368;28;20370;-68
2024/01/05 12:11:27;;;;;;;5.57;2.95;;;;;;;4.24;100.00;99651.25;6238227;28;20409;-67
2024/01/05 12:14:30;;;;;;;4.90;2.97;;;;;;;4.36;100.00;99657.63;6245952;28;20052;-68
2024/01/05 12:17:31;;;;;;;5.78;3.17;;;;;;;4.45;100.00;99649.41;6250447;28;20361;-68
2024/01/05 12:20:33;;;;;;;5.65;3.38;;;;;;;4.46;100.00;99638.97;6250539;28;20046;-69
2024/01/05 12:23:34;;;;;;;4.85;3.28;;;;;;;4.43;100.00;99648.66;6252751;28;20096;-68
2024/01/05 12:26:36;;;;;;;7.85;3.75;;;;;;;4.38;100.00;99642.81;6250218;28;20441;-69
2024/01/05 12:29:42;;;;;;;7.95;3.67;;;;;;;4.45;100.00;99641.59;6246681;28;20049;-69
2024/01/05 12:32:44;;;;;;;8.93;4.05;;;;;;;4.43;100.00;99644.28;6249717;28;20046;-70
2024/01/05 12:35:48;;;;;;;7.30;4.22;;;;;;;4.36;100.00;99642.03;6246051;28;20056;-69
2024/01/05 12:38:49;;;;;;;8.07;3.85;;;;;;;4.35;100.00;99640.34;6249837;28;20041;-70
2024/01/05 12:41:51;;;;;;;5.43;3.78;;;;;;;4.41;100.00;99640.09;6250361;28;20052;-69
2024/01/05 12:44:53;;;;;;;6.68;3.47;;;;;;;4.44;100.00;99639.94;6251006;28;20057;-69
2024/01/05 12:47:55;;;;;;;7.82;3.40;;;;;;;4.36;100.00;99636.81;6262286;28;20338;-69
2024/01/05 12:51:04;;;;;;;5.45;3.40;;;;;;;4.44;100.00;99625.16;6273016;28;20452;-69
2024/01/05 12:54:05;;;;;;;5.72;3.63;;;;;;;4.47;100.00;99632.84;6249833;28;20054;-69
2024/01/05 12:57:08;;;;;;;7.38;3.67;;;;;;;4.47;100.00;99632.00;6251345;28;20041;-69
2024/01/05 13:00:11;;;;;;;9.55;3.80;;;;;;;4.40;100.00;99638.38;6250491;28;20038;-69
2024/01/05 13:03:19;;;;;;;5.63;3.58;;;;;;;4.33;100.00;99635.22;6252835;28;20426;-69
2024/01/05 13:06:21;;;;;;;15.85;4.85;;;;;;;4.38;100.00;99632.41;6251817;28;20056;-69
2024/01/05 13:09:23;;;;;;;8.55;4.63;;;;;;;4.41;100.00;99635.72;6270666;28;20338;-69
2024/01/05 13:12:25;;;;;;;7.07;3.63;;;;;;;4.31;100.00;99634.44;6262135;28;20041;-69
2024/01/05 13:15:30;;;;;;;8.63;4.82;;;;;;;4.37;100.00;99631.56;6254518;28;20354;-69
2024/01/05 13:18:31;;;;;;;8.60;4.28;;;;;;;4.47;100.00;99634.59;6264225;28;20076;-69
2024/01/05 13:21:33;;;;;;;10.50;4.82;;;;;;;4.50;100.00;99632.69;6250514;28;20041;-70
2024/01/05 13:24:34;;;;;;;9.13;4.47;;;;;;;4.45;100.00;99628.59;6243179;28;20045;-69
2024/01/05 13:27:38;;;;;;;11.45;4.80;;;;;;;4.43;100.00;99623.47;6248182;28;20042;-69
2024/01/05 13:30:41;;;;;;;13.57;5.32;;;;;;;4.43;100.00;99625.25;6247921;28;20042;-69
2024/01/05 13:33:43;;;;;;;9.77;4.35;;;;;;;4.45;100.00;99631.19;6249535;28;20042;-70
2024/01/05 13:36:44;;;;;;;8.68;4.60;;;;;;;4.47;100.00;99632.00;6240408;28;20050;-69
2024/01/05 13:39:46;;;;;;;7.55;4.10;;;;;;;4.42;100.00;99629.59;6255813;28;20047;-69
2024/01/05 13:42:47;;;;;;;10.55;4.60;;;;;;;4.44;100.00;99627.75;6270796;28;20049;-70
2024/01/05 13:45:50;;;;;;;10.02;4.63;;;;;;;4.41;100.00;99640.94;6249579;28;20049;-69
2024/01/05 13:48:51;;;;;;;10.13;5.30;;;;;;;4.39;100.00;99662.72;6273660;28;20048;-75
2024/01/05 13:51:52;;;;;;;8.38;4.80;;;;;;;4.27;100.00;99687.50;6266922;28;20430;-69
2024/01/05 13:54:54;;;;;;;10.43;4.82;;;;;;;4.26;100.00;99706.63;6235595;28;20046;-71
2024/01/05 13:57:55;;;;;;;9.55;5.22;;;;;;;4.29;100.00;99722.09;6237804;28;20048;-69
2024/01/05 14:01:03;;;;;;;8.98;4.80;;;;;;;4.38;100.00;99677.47;6257329;28;20045;-69
2024/01/05 14:04:05;;;;;;;13.45;5.85;;;;;;;4.46;100.00;99690.16;6274450;28;20045;-70
2024/01/05 14:07:06;;;;;;;11.05;5.40;;;;;;;4.45;100.00;99699.72;6273908;28;20048;-71
2024/01/05 14:10:08;;;;;;;8.77;5.45;;;;;;;4.50;100.00;99689.09;6274806;28;20045;-69